Terminal Aerodrome Forecast
Issued by NWS Wakefield, VA

Home | Current Version | Previous Version | Text Only | Print | Product List | Glossary On
Versions: 1 2 3 4 5 6 7 8 9 10 11 12 13 14 15 16
144
FTUS41 KAKQ 010530
TAFRIC
TAF
KRIC 010530Z 0106/0206 21004KT P6SM BKN070
     FM011100 VRB03KT 5SM BR SCT060
     FM011230 26004KT P6SM BKN070
     FM011600 32005KT P6SM VCSH BKN060
     FM012300 36006KT P6SM BKN060=

USA.gov is the U.S. government's official web portal to all federal, state and local government web resources and services.